Atka, AK (99547)

7:20 AM HDT on July 05, 2015 (GMT -0900)
Atka | | Change Station
CLOSE
Current Station
Airport
Location: Atka,
Elevation: 56 ft
Nearby Weather Stations

Elev 56 ft 52.22 °N, 174.21 °W | Updated 4 minutes ago

Overcast
Overcast
46 °F
Feels Like 42 °F
N
8
Wind Variable Wind from WNW

Today
High -- | Low -- °F
--% Chance of Precip.
Yesterday
High -- | Low -- °F
Precip. -- in
6:24 AM 10:59 PM
Waning Gibbous, 84% visible
Pressure 29.36 in
Visibility 8.0 miles
Clouds Mostly Cloudy 1400 ft
Mostly Cloudy 1900 ft
Overcast 2500 ft
Windchill 42 °F
Dew Point 43 °F
Humidity 87%
Rainfall 0.00 in
Snow Depth Not available.
UV 0 out of 12
Pollen Not available.
Air Quality Not available.
Flu Activity Not available.
METAR PAAK 051616Z 29007KT 8SM BKN014 BKN019 OVC025 08/06 A2936 RMK AO1

More Conditions Fewer Conditions

Pressure 29.36 in
Visibility 8.0 miles
Clouds Mostly Cloudy 1400 ft
Mostly Cloudy 1900 ft
Overcast 2500 ft
Windchill 42 °F
Dew Point 43 °F
Humidity 87%
Rainfall 0.00 in
Snow Depth Not available.
UV 0 out of 12
Pollen Not available.
Air Quality Not available.
Flu Activity Not available.
METAR PAAK 051616Z 29007KT 8SM BKN014 BKN019 OVC025 08/06 A2936 RMK AO1

More Conditions Fewer Conditions

10-Day Weather Forecast

×

Almanac

Astronomy

Jul. 05, 2015 Rise Set
Actual Time
Civil Twilight
Nautical Twilight
Astronomical Twilight
Moon
Length of Visible Light
Length of Day
Tomorrow will be .
, % of the Moon is Illuminated

Today's Extremes

State Highs State Lows

Community

WunderPhotos

Upload Photos

1,835,302 photos uploaded!

WunderBlogs® & News

Nearby

Air Quality

  Air Quality AQ Index Pollutant
Not available.

Snow Depth

Station Depth Elevation

Earthquake Activity

City Distance Mag. Time & Date
Minimum magnitude displayed is 2.5.

Coastal Water Temperatures

Place Temperature

Stations

Nearby Weather Stations

Station Location Temp. Windchill Dew Point Humidity Wind Precip. Elev Updated Type